sensor_id;sensor_type;location;lat;lon;timestamp;P1;durP1;ratioP1;P2;durP2;ratioP2
13204;SDS011;6667;52.634;9.226;2023-05-10T00:02:18;2.93;;;2.20;;
13204;SDS011;6667;52.634;9.226;2023-05-10T00:04:46;3.60;;;2.40;;
13204;SDS011;6667;52.634;9.226;2023-05-10T00:07:12;5.57;;;2.27;;
13204;SDS011;6667;52.634;9.226;2023-05-10T00:09:40;4.00;;;2.27;;
13204;SDS011;6667;52.634;9.226;2023-05-10T00:12:07;2.73;;;2.40;;
13204;SDS011;6667;52.634;9.226;2023-05-10T00:14:34;4.20;;;2.13;;
13204;SDS011;6667;52.634;9.226;2023-05-10T00:17:01;2.47;;;1.87;;
13204;SDS011;6667;52.634;9.226;2023-05-10T00:19:28;5.50;;;2.43;;
13204;SDS011;6667;52.634;9.226;2023-05-10T00:21:56;3.00;;;2.10;;
13204;SDS011;6667;52.634;9.226;2023-05-10T00:24:22;4.10;;;2.00;;
13204;SDS011;6667;52.634;9.226;2023-05-10T00:26:50;4.83;;;1.90;;
13204;SDS011;6667;52.634;9.226;2023-05-10T00:29:16;6.63;;;2.47;;
13204;SDS011;6667;52.634;9.226;2023-05-10T00:31:43;5.47;;;2.40;;
13204;SDS011;6667;52.634;9.226;2023-05-10T00:34:10;3.77;;;2.07;;
13204;SDS011;6667;52.634;9.226;2023-05-10T00:36:37;3.53;;;2.20;;
13204;SDS011;6667;52.634;9.226;2023-05-10T00:39:05;2.63;;;2.33;;
13204;SDS011;6667;52.634;9.226;2023-05-10T00:41:31;3.27;;;2.10;;
13204;SDS011;6667;52.634;9.226;2023-05-10T00:43:58;5.87;;;2.20;;
13204;SDS011;6667;52.634;9.226;2023-05-10T00:46:25;4.03;;;2.10;;
13204;SDS011;6667;52.634;9.226;2023-05-10T00:48:53;5.17;;;2.13;;
13204;SDS011;6667;52.634;9.226;2023-05-10T00:51:20;2.83;;;1.97;;
13204;SDS011;6667;52.634;9.226;2023-05-10T00:53:46;3.43;;;2.13;;
13204;SDS011;6667;52.634;9.226;2023-05-10T00:56:16;3.23;;;2.20;;
13204;SDS011;6667;52.634;9.226;2023-05-10T00:58:45;7.13;;;2.30;;
13204;SDS011;6667;52.634;9.226;2023-05-10T01:01:12;4.27;;;2.40;;
13204;SDS011;6667;52.634;9.226;2023-05-10T01:03:39;4.30;;;2.17;;
13204;SDS011;6667;52.634;9.226;2023-05-10T01:06:06;4.40;;;2.23;;
13204;SDS011;6667;52.634;9.226;2023-05-10T01:08:34;3.37;;;2.30;;
13204;SDS011;6667;52.634;9.226;2023-05-10T01:11:01;4.33;;;2.37;;
13204;SDS011;6667;52.634;9.226;2023-05-10T01:13:31;3.10;;;2.23;;
13204;SDS011;6667;52.634;9.226;2023-05-10T01:16:01;4.17;;;2.60;;
13204;SDS011;6667;52.634;9.226;2023-05-10T01:18:28;3.80;;;2.50;;
13204;SDS011;6667;52.634;9.226;2023-05-10T01:21:01;5.33;;;2.77;;
13204;SDS011;6667;52.634;9.226;2023-05-10T01:23:43;3.77;;;2.37;;
13204;SDS011;6667;52.634;9.226;2023-05-10T01:26:25;3.80;;;2.73;;
13204;SDS011;6667;52.634;9.226;2023-05-10T01:29:16;4.13;;;2.43;;
13204;SDS011;6667;52.634;9.226;2023-05-10T01:34:54;4.87;;;2.40;;
13204;SDS011;6667;52.634;9.226;2023-05-10T01:37:30;2.77;;;2.57;;
13204;SDS011;6667;52.634;9.226;2023-05-10T01:40:03;5.73;;;2.87;;
13204;SDS011;6667;52.634;9.226;2023-05-10T01:42:40;3.43;;;2.60;;
13204;SDS011;6667;52.634;9.226;2023-05-10T01:45:14;10.53;;;2.73;;
13204;SDS011;6667;52.634;9.226;2023-05-10T01:47:52;3.27;;;2.43;;
13204;SDS011;6667;52.634;9.226;2023-05-10T01:50:27;5.77;;;2.70;;
13204;SDS011;6667;52.634;9.226;2023-05-10T01:52:56;5.60;;;2.40;;
13204;SDS011;6667;52.634;9.226;2023-05-10T01:55:25;4.00;;;2.70;;
13204;SDS011;6667;52.634;9.226;2023-05-10T01:57:57;5.13;;;2.63;;
13204;SDS011;6667;52.634;9.226;2023-05-10T02:00:29;9.17;;;3.27;;
13204;SDS011;6667;52.634;9.226;2023-05-10T02:02:57;5.17;;;2.27;;
13204;SDS011;6667;52.634;9.226;2023-05-10T02:05:26;6.27;;;2.50;;
13204;SDS011;6667;52.634;9.226;2023-05-10T02:07:56;6.17;;;2.63;;
13204;SDS011;6667;52.634;9.226;2023-05-10T02:10:25;4.63;;;2.80;;
13204;SDS011;6667;52.634;9.226;2023-05-10T02:12:53;5.90;;;2.60;;
13204;SDS011;6667;52.634;9.226;2023-05-10T02:15:22;5.10;;;2.60;;
13204;SDS011;6667;52.634;9.226;2023-05-10T02:17:50;6.63;;;2.73;;
13204;SDS011;6667;52.634;9.226;2023-05-10T02:20:20;3.63;;;2.60;;
13204;SDS011;6667;52.634;9.226;2023-05-10T02:22:48;6.13;;;3.03;;
13204;SDS011;6667;52.634;9.226;2023-05-10T02:25:17;5.90;;;2.80;;
13204;SDS011;6667;52.634;9.226;2023-05-10T02:27:45;6.47;;;3.23;;
13204;SDS011;6667;52.634;9.226;2023-05-10T02:30:14;3.37;;;2.53;;
13204;SDS011;6667;52.634;9.226;2023-05-10T02:32:41;4.40;;;2.77;;
13204;SDS011;6667;52.634;9.226;2023-05-10T02:35:09;3.40;;;2.93;;
13204;SDS011;6667;52.634;9.226;2023-05-10T02:37:38;7.00;;;3.53;;
13204;SDS011;6667;52.634;9.226;2023-05-10T02:40:06;4.00;;;2.93;;
13204;SDS011;6667;52.634;9.226;2023-05-10T02:42:35;3.60;;;3.10;;
13204;SDS011;6667;52.634;9.226;2023-05-10T02:45:04;4.10;;;2.87;;
13204;SDS011;6667;52.634;9.226;2023-05-10T02:47:36;3.80;;;3.10;;
13204;SDS011;6667;52.634;9.226;2023-05-10T02:50:04;4.77;;;2.93;;
13204;SDS011;6667;52.634;9.226;2023-05-10T02:52:36;3.47;;;2.77;;
13204;SDS011;6667;52.634;9.226;2023-05-10T02:55:09;4.43;;;3.17;;
13204;SDS011;6667;52.634;9.226;2023-05-10T02:57:40;5.83;;;2.87;;
13204;SDS011;6667;52.634;9.226;2023-05-10T03:00:11;3.77;;;2.50;;
13204;SDS011;6667;52.634;9.226;2023-05-10T03:02:38;5.77;;;3.13;;
13204;SDS011;6667;52.634;9.226;2023-05-10T03:05:05;6.37;;;3.20;;
13204;SDS011;6667;52.634;9.226;2023-05-10T03:10:30;6.73;;;3.13;;
13204;SDS011;6667;52.634;9.226;2023-05-10T03:13:04;5.77;;;3.00;;
13204;SDS011;6667;52.634;9.226;2023-05-10T03:15:42;7.20;;;2.90;;
13204;SDS011;6667;52.634;9.226;2023-05-10T03:18:28;5.77;;;3.27;;
13204;SDS011;6667;52.634;9.226;2023-05-10T03:21:11;4.77;;;3.47;;
13204;SDS011;6667;52.634;9.226;2023-05-10T03:27:09;8.03;;;3.63;;
13204;SDS011;6667;52.634;9.226;2023-05-10T03:29:38;4.97;;;3.40;;
13204;SDS011;6667;52.634;9.226;2023-05-10T03:32:06;6.70;;;3.77;;
13204;SDS011;6667;52.634;9.226;2023-05-10T03:34:34;5.10;;;3.00;;
13204;SDS011;6667;52.634;9.226;2023-05-10T03:37:10;4.27;;;3.13;;
13204;SDS011;6667;52.634;9.226;2023-05-10T03:40:13;4.47;;;3.53;;
13204;SDS011;6667;52.634;9.226;2023-05-10T03:42:48;4.83;;;3.57;;
13204;SDS011;6667;52.634;9.226;2023-05-10T03:48:25;4.70;;;3.90;;
13204;SDS011;6667;52.634;9.226;2023-05-10T03:50:52;4.33;;;3.37;;
13204;SDS011;6667;52.634;9.226;2023-05-10T03:53:32;3.83;;;3.37;;
13204;SDS011;6667;52.634;9.226;2023-05-10T03:56:11;4.13;;;3.23;;
13204;SDS011;6667;52.634;9.226;2023-05-10T03:58:45;3.80;;;3.40;;
13204;SDS011;6667;52.634;9.226;2023-05-10T04:01:15;6.13;;;3.80;;
13204;SDS011;6667;52.634;9.226;2023-05-10T04:03:52;5.43;;;3.97;;
13204;SDS011;6667;52.634;9.226;2023-05-10T04:06:20;6.17;;;3.83;;
13204;SDS011;6667;52.634;9.226;2023-05-10T04:08:57;4.60;;;3.83;;
13204;SDS011;6667;52.634;9.226;2023-05-10T04:11:46;5.07;;;3.90;;
13204;SDS011;6667;52.634;9.226;2023-05-10T04:14:18;6.60;;;4.20;;
13204;SDS011;6667;52.634;9.226;2023-05-10T04:16:47;4.93;;;3.80;;
13204;SDS011;6667;52.634;9.226;2023-05-10T04:19:14;8.07;;;4.17;;
13204;SDS011;6667;52.634;9.226;2023-05-10T04:21:42;4.70;;;4.13;;
13204;SDS011;6667;52.634;9.226;2023-05-10T04:24:25;7.13;;;4.00;;
13204;SDS011;6667;52.634;9.226;2023-05-10T04:33:27;5.90;;;3.70;;
13204;SDS011;6667;52.634;9.226;2023-05-10T04:35:53;6.93;;;4.67;;
13204;SDS011;6667;52.634;9.226;2023-05-10T04:38:20;4.87;;;4.37;;
13204;SDS011;6667;52.634;9.226;2023-05-10T04:40:47;5.53;;;4.43;;
13204;SDS011;6667;52.634;9.226;2023-05-10T04:43:14;8.47;;;4.50;;
13204;SDS011;6667;52.634;9.226;2023-05-10T04:45:40;7.13;;;4.80;;
13204;SDS011;6667;52.634;9.226;2023-05-10T04:48:08;7.40;;;5.10;;
13204;SDS011;6667;52.634;9.226;2023-05-10T04:50:35;9.70;;;5.87;;
13204;SDS011;6667;52.634;9.226;2023-05-10T04:53:02;6.67;;;4.57;;
13204;SDS011;6667;52.634;9.226;2023-05-10T04:55:29;5.53;;;4.17;;
13204;SDS011;6667;52.634;9.226;2023-05-10T04:57:55;6.73;;;4.70;;
13204;SDS011;6667;52.634;9.226;2023-05-10T05:00:24;5.57;;;4.50;;
13204;SDS011;6667;52.634;9.226;2023-05-10T05:02:50;5.63;;;4.67;;
13204;SDS011;6667;52.634;9.226;2023-05-10T05:05:19;5.90;;;4.83;;
13204;SDS011;6667;52.634;9.226;2023-05-10T05:07:45;5.60;;;3.90;;
13204;SDS011;6667;52.634;9.226;2023-05-10T05:10:12;7.13;;;5.20;;
13204;SDS011;6667;52.634;9.226;2023-05-10T05:12:39;7.67;;;4.47;;
13204;SDS011;6667;52.634;9.226;2023-05-10T05:15:06;6.13;;;4.80;;
13204;SDS011;6667;52.634;9.226;2023-05-10T05:17:34;7.03;;;5.20;;
13204;SDS011;6667;52.634;9.226;2023-05-10T05:20:01;6.37;;;4.93;;
13204;SDS011;6667;52.634;9.226;2023-05-10T05:22:29;9.43;;;5.90;;
13204;SDS011;6667;52.634;9.226;2023-05-10T05:24:56;7.20;;;4.47;;
13204;SDS011;6667;52.634;9.226;2023-05-10T05:27:24;6.53;;;5.57;;
13204;SDS011;6667;52.634;9.226;2023-05-10T05:29:52;6.73;;;5.13;;
13204;SDS011;6667;52.634;9.226;2023-05-10T05:32:19;8.00;;;5.10;;
13204;SDS011;6667;52.634;9.226;2023-05-10T05:34:46;6.37;;;5.10;;
13204;SDS011;6667;52.634;9.226;2023-05-10T05:37:14;5.83;;;4.73;;
13204;SDS011;6667;52.634;9.226;2023-05-10T05:39:42;6.03;;;5.27;;
13204;SDS011;6667;52.634;9.226;2023-05-10T05:42:09;7.97;;;5.53;;
13204;SDS011;6667;52.634;9.226;2023-05-10T05:44:36;6.00;;;5.30;;
13204;SDS011;6667;52.634;9.226;2023-05-10T05:47:03;7.27;;;5.43;;
13204;SDS011;6667;52.634;9.226;2023-05-10T05:49:30;7.13;;;5.60;;
13204;SDS011;6667;52.634;9.226;2023-05-10T05:51:58;9.17;;;5.17;;
13204;SDS011;6667;52.634;9.226;2023-05-10T05:54:26;6.30;;;5.23;;
13204;SDS011;6667;52.634;9.226;2023-05-10T05:56:54;6.93;;;6.20;;
13204;SDS011;6667;52.634;9.226;2023-05-10T05:59:21;10.50;;;5.83;;
13204;SDS011;6667;52.634;9.226;2023-05-10T06:01:48;7.00;;;5.43;;
13204;SDS011;6667;52.634;9.226;2023-05-10T06:04:16;9.53;;;5.07;;
13204;SDS011;6667;52.634;9.226;2023-05-10T06:06:43;7.43;;;5.43;;
13204;SDS011;6667;52.634;9.226;2023-05-10T06:09:10;8.97;;;6.17;;
13204;SDS011;6667;52.634;9.226;2023-05-10T06:11:37;7.57;;;5.87;;
13204;SDS011;6667;52.634;9.226;2023-05-10T06:14:05;8.17;;;5.40;;
13204;SDS011;6667;52.634;9.226;2023-05-10T06:16:33;7.70;;;5.47;;
13204;SDS011;6667;52.634;9.226;2023-05-10T06:19:00;7.50;;;5.37;;
13204;SDS011;6667;52.634;9.226;2023-05-10T06:21:26;7.10;;;6.00;;
13204;SDS011;6667;52.634;9.226;2023-05-10T06:23:53;6.80;;;5.33;;
13204;SDS011;6667;52.634;9.226;2023-05-10T06:26:20;6.67;;;5.37;;
13204;SDS011;6667;52.634;9.226;2023-05-10T06:28:46;6.17;;;5.57;;
13204;SDS011;6667;52.634;9.226;2023-05-10T06:31:14;9.40;;;6.10;;
13204;SDS011;6667;52.634;9.226;2023-05-10T06:33:41;10.57;;;6.03;;
13204;SDS011;6667;52.634;9.226;2023-05-10T06:36:08;7.00;;;5.50;;
13204;SDS011;6667;52.634;9.226;2023-05-10T06:38:35;8.00;;;5.47;;
13204;SDS011;6667;52.634;9.226;2023-05-10T06:41:02;7.13;;;5.80;;
13204;SDS011;6667;52.634;9.226;2023-05-10T06:43:28;7.43;;;6.27;;
13204;SDS011;6667;52.634;9.226;2023-05-10T06:45:55;7.43;;;6.00;;
13204;SDS011;6667;52.634;9.226;2023-05-10T06:48:23;7.73;;;6.00;;
13204;SDS011;6667;52.634;9.226;2023-05-10T06:50:50;7.10;;;5.27;;
13204;SDS011;6667;52.634;9.226;2023-05-10T06:53:17;8.90;;;6.30;;
13204;SDS011;6667;52.634;9.226;2023-05-10T06:55:43;9.37;;;6.40;;
13204;SDS011;6667;52.634;9.226;2023-05-10T06:58:10;7.37;;;6.10;;
13204;SDS011;6667;52.634;9.226;2023-05-10T07:00:37;10.17;;;6.00;;
13204;SDS011;6667;52.634;9.226;2023-05-10T07:03:05;7.57;;;6.40;;
13204;SDS011;6667;52.634;9.226;2023-05-10T07:05:33;8.17;;;6.53;;
13204;SDS011;6667;52.634;9.226;2023-05-10T07:08:00;8.77;;;7.33;;
13204;SDS011;6667;52.634;9.226;2023-05-10T07:10:27;7.10;;;6.27;;
13204;SDS011;6667;52.634;9.226;2023-05-10T07:12:54;8.77;;;6.80;;
13204;SDS011;6667;52.634;9.226;2023-05-10T07:15:21;7.83;;;5.97;;
13204;SDS011;6667;52.634;9.226;2023-05-10T07:17:48;9.13;;;6.27;;
13204;SDS011;6667;52.634;9.226;2023-05-10T07:20:15;7.20;;;6.00;;
13204;SDS011;6667;52.634;9.226;2023-05-10T07:22:43;7.53;;;6.33;;
13204;SDS011;6667;52.634;9.226;2023-05-10T07:25:10;8.03;;;6.57;;
13204;SDS011;6667;52.634;9.226;2023-05-10T07:27:36;9.23;;;7.03;;
13204;SDS011;6667;52.634;9.226;2023-05-10T07:30:03;8.10;;;7.07;;
13204;SDS011;6667;52.634;9.226;2023-05-10T07:32:31;8.23;;;6.87;;
13204;SDS011;6667;52.634;9.226;2023-05-10T07:34:57;8.67;;;6.77;;
13204;SDS011;6667;52.634;9.226;2023-05-10T07:37:24;10.70;;;7.10;;
13204;SDS011;6667;52.634;9.226;2023-05-10T07:39:52;8.50;;;7.60;;
13204;SDS011;6667;52.634;9.226;2023-05-10T07:42:19;8.40;;;7.20;;
13204;SDS011;6667;52.634;9.226;2023-05-10T07:44:46;12.07;;;7.50;;
13204;SDS011;6667;52.634;9.226;2023-05-10T07:47:12;7.30;;;6.60;;
13204;SDS011;6667;52.634;9.226;2023-05-10T07:49:39;8.73;;;6.50;;
13204;SDS011;6667;52.634;9.226;2023-05-10T07:52:06;7.60;;;6.07;;
13204;SDS011;6667;52.634;9.226;2023-05-10T07:54:32;8.43;;;6.40;;
13204;SDS011;6667;52.634;9.226;2023-05-10T07:57:01;7.37;;;6.37;;
13204;SDS011;6667;52.634;9.226;2023-05-10T07:59:27;7.00;;;6.07;;
13204;SDS011;6667;52.634;9.226;2023-05-10T08:01:54;6.20;;;5.60;;
13204;SDS011;6667;52.634;9.226;2023-05-10T08:04:21;6.73;;;5.43;;
13204;SDS011;6667;52.634;9.226;2023-05-10T08:06:48;6.67;;;5.53;;
13204;SDS011;6667;52.634;9.226;2023-05-10T08:09:14;5.37;;;4.83;;
13204;SDS011;6667;52.634;9.226;2023-05-10T08:11:42;5.23;;;4.20;;
13204;SDS011;6667;52.634;9.226;2023-05-10T08:14:10;5.40;;;3.40;;
13204;SDS011;6667;52.634;9.226;2023-05-10T08:16:37;3.50;;;2.83;;
13204;SDS011;6667;52.634;9.226;2023-05-10T08:19:04;2.77;;;2.57;;
13204;SDS011;6667;52.634;9.226;2023-05-10T08:21:30;2.83;;;2.63;;
13204;SDS011;6667;52.634;9.226;2023-05-10T08:23:57;2.50;;;2.30;;
13204;SDS011;6667;52.634;9.226;2023-05-10T08:26:24;3.00;;;2.70;;
13204;SDS011;6667;52.634;9.226;2023-05-10T08:28:51;3.47;;;2.93;;
13204;SDS011;6667;52.634;9.226;2023-05-10T08:31:19;3.50;;;3.20;;
13204;SDS011;6667;52.634;9.226;2023-05-10T08:33:46;3.60;;;2.67;;
13204;SDS011;6667;52.634;9.226;2023-05-10T08:36:13;4.00;;;3.00;;
13204;SDS011;6667;52.634;9.226;2023-05-10T08:38:44;3.63;;;3.30;;
13204;SDS011;6667;52.634;9.226;2023-05-10T08:41:11;3.47;;;3.17;;
13204;SDS011;6667;52.634;9.226;2023-05-10T08:43:38;4.07;;;3.40;;
13204;SDS011;6667;52.634;9.226;2023-05-10T08:46:06;3.17;;;2.87;;
13204;SDS011;6667;52.634;9.226;2023-05-10T08:48:36;3.90;;;2.90;;
13204;SDS011;6667;52.634;9.226;2023-05-10T08:51:04;2.90;;;2.70;;
13204;SDS011;6667;52.634;9.226;2023-05-10T08:53:33;3.23;;;2.93;;
13204;SDS011;6667;52.634;9.226;2023-05-10T08:56:02;3.53;;;3.23;;
13204;SDS011;6667;52.634;9.226;2023-05-10T08:58:30;4.90;;;3.30;;
13204;SDS011;6667;52.634;9.226;2023-05-10T09:00:57;5.40;;;3.40;;
13204;SDS011;6667;52.634;9.226;2023-05-10T09:03:25;4.13;;;3.37;;
13204;SDS011;6667;52.634;9.226;2023-05-10T09:05:53;4.33;;;3.53;;
13204;SDS011;6667;52.634;9.226;2023-05-10T09:08:21;3.63;;;3.10;;
13204;SDS011;6667;52.634;9.226;2023-05-10T09:10:50;3.03;;;2.73;;
13204;SDS011;6667;52.634;9.226;2023-05-10T09:13:18;4.93;;;3.50;;
13204;SDS011;6667;52.634;9.226;2023-05-10T09:15:45;3.10;;;2.80;;
13204;SDS011;6667;52.634;9.226;2023-05-10T09:18:13;2.60;;;2.37;;
13204;SDS011;6667;52.634;9.226;2023-05-10T09:20:40;2.77;;;2.57;;
13204;SDS011;6667;52.634;9.226;2023-05-10T09:23:08;2.90;;;2.60;;
13204;SDS011;6667;52.634;9.226;2023-05-10T09:25:35;3.57;;;3.00;;
13204;SDS011;6667;52.634;9.226;2023-05-10T09:28:05;3.00;;;2.47;;
13204;SDS011;6667;52.634;9.226;2023-05-10T09:30:32;3.10;;;2.80;;
13204;SDS011;6667;52.634;9.226;2023-05-10T09:32:59;3.63;;;2.87;;
13204;SDS011;6667;52.634;9.226;2023-05-10T09:35:27;3.47;;;2.93;;
13204;SDS011;6667;52.634;9.226;2023-05-10T09:37:56;3.57;;;2.90;;
13204;SDS011;6667;52.634;9.226;2023-05-10T09:40:26;3.80;;;3.40;;
13204;SDS011;6667;52.634;9.226;2023-05-10T09:42:54;3.17;;;2.83;;
13204;SDS011;6667;52.634;9.226;2023-05-10T09:45:23;3.53;;;3.23;;
13204;SDS011;6667;52.634;9.226;2023-05-10T09:47:51;6.07;;;3.43;;
13204;SDS011;6667;52.634;9.226;2023-05-10T09:50:18;4.97;;;3.07;;
13204;SDS011;6667;52.634;9.226;2023-05-10T09:52:46;3.77;;;3.37;;
13204;SDS011;6667;52.634;9.226;2023-05-10T09:55:14;2.87;;;2.27;;
13204;SDS011;6667;52.634;9.226;2023-05-10T09:57:42;3.50;;;2.90;;
13204;SDS011;6667;52.634;9.226;2023-05-10T10:00:10;3.63;;;3.00;;
13204;SDS011;6667;52.634;9.226;2023-05-10T10:02:42;3.80;;;3.40;;
13204;SDS011;6667;52.634;9.226;2023-05-10T10:05:11;4.53;;;3.57;;
13204;SDS011;6667;52.634;9.226;2023-05-10T10:07:38;5.27;;;3.37;;
13204;SDS011;6667;52.634;9.226;2023-05-10T10:10:05;4.07;;;3.50;;
13204;SDS011;6667;52.634;9.226;2023-05-10T10:12:36;5.73;;;4.27;;
13204;SDS011;6667;52.634;9.226;2023-05-10T10:15:05;5.33;;;4.30;;
13204;SDS011;6667;52.634;9.226;2023-05-10T10:17:33;5.23;;;4.73;;
13204;SDS011;6667;52.634;9.226;2023-05-10T10:20:02;4.97;;;4.10;;
13204;SDS011;6667;52.634;9.226;2023-05-10T10:22:29;5.40;;;4.33;;
13204;SDS011;6667;52.634;9.226;2023-05-10T10:24:56;6.47;;;3.80;;
13204;SDS011;6667;52.634;9.226;2023-05-10T10:27:24;4.67;;;4.27;;
13204;SDS011;6667;52.634;9.226;2023-05-10T10:29:59;5.77;;;3.83;;
13204;SDS011;6667;52.634;9.226;2023-05-10T10:32:34;5.27;;;4.47;;
13204;SDS011;6667;52.634;9.226;2023-05-10T10:35:10;6.97;;;4.50;;
13204;SDS011;6667;52.634;9.226;2023-05-10T10:37:44;5.57;;;4.40;;
13204;SDS011;6667;52.634;9.226;2023-05-10T10:40:22;5.67;;;3.87;;
13204;SDS011;6667;52.634;9.226;2023-05-10T10:42:50;7.10;;;4.17;;
13204;SDS011;6667;52.634;9.226;2023-05-10T10:45:18;7.10;;;4.90;;
13204;SDS011;6667;52.634;9.226;2023-05-10T10:47:47;5.43;;;4.38;;
13204;SDS011;6667;52.634;9.226;2023-05-10T10:50:15;5.05;;;4.20;;
13204;SDS011;6667;52.634;9.226;2023-05-10T10:52:42;6.60;;;5.28;;
13204;SDS011;6667;52.634;9.226;2023-05-10T10:55:10;5.25;;;4.30;;
13204;SDS011;6667;52.634;9.226;2023-05-10T10:57:45;6.95;;;4.93;;
13204;SDS011;6667;52.634;9.226;2023-05-10T11:00:24;6.25;;;4.85;;
13204;SDS011;6667;52.634;9.226;2023-05-10T11:02:57;6.15;;;4.93;;
13204;SDS011;6667;52.634;9.226;2023-05-10T11:05:27;5.85;;;5.20;;
13204;SDS011;6667;52.634;9.226;2023-05-10T11:08:07;6.27;;;5.17;;
13204;SDS011;6667;52.634;9.226;2023-05-10T11:10:54;6.03;;;4.88;;
13204;SDS011;6667;52.634;9.226;2023-05-10T11:13:32;6.07;;;4.47;;
13204;SDS011;6667;52.634;9.226;2023-05-10T11:16:09;7.18;;;4.65;;
13204;SDS011;6667;52.634;9.226;2023-05-10T11:18:39;7.82;;;5.82;;
13204;SDS011;6667;52.634;9.226;2023-05-10T11:21:07;6.20;;;5.22;;
13204;SDS011;6667;52.634;9.226;2023-05-10T11:23:47;7.57;;;5.35;;
13204;SDS011;6667;52.634;9.226;2023-05-10T11:26:15;6.43;;;4.70;;
13204;SDS011;6667;52.634;9.226;2023-05-10T11:28:43;5.15;;;4.60;;
13204;SDS011;6667;52.634;9.226;2023-05-10T11:31:10;6.47;;;4.93;;
13204;SDS011;6667;52.634;9.226;2023-05-10T11:33:44;6.97;;;5.18;;
13204;SDS011;6667;52.634;9.226;2023-05-10T11:36:11;6.43;;;5.53;;
13204;SDS011;6667;52.634;9.226;2023-05-10T11:38:38;6.35;;;5.30;;
13204;SDS011;6667;52.634;9.226;2023-05-10T11:41:05;6.20;;;5.32;;
13204;SDS011;6667;52.634;9.226;2023-05-10T11:43:34;8.82;;;6.10;;
13204;SDS011;6667;52.634;9.226;2023-05-10T11:46:03;6.93;;;6.03;;
13204;SDS011;6667;52.634;9.226;2023-05-10T11:48:30;10.90;;;6.55;;
13204;SDS011;6667;52.634;9.226;2023-05-10T11:50:58;6.07;;;4.18;;
13204;SDS011;6667;52.634;9.226;2023-05-10T11:53:27;6.13;;;4.25;;
13204;SDS011;6667;52.634;9.226;2023-05-10T11:55:55;4.05;;;3.45;;
13204;SDS011;6667;52.634;9.226;2023-05-10T11:58:23;3.67;;;3.28;;
13204;SDS011;6667;52.634;9.226;2023-05-10T12:00:50;8.02;;;5.70;;
13204;SDS011;6667;52.634;9.226;2023-05-10T12:03:17;7.00;;;4.32;;
13204;SDS011;6667;52.634;9.226;2023-05-10T12:05:43;5.82;;;3.83;;
13204;SDS011;6667;52.634;9.226;2023-05-10T12:08:12;5.75;;;3.95;;
13204;SDS011;6667;52.634;9.226;2023-05-10T12:10:40;6.63;;;4.20;;
13204;SDS011;6667;52.634;9.226;2023-05-10T12:13:10;6.18;;;4.68;;
13204;SDS011;6667;52.634;9.226;2023-05-10T12:15:38;6.30;;;3.90;;
13204;SDS011;6667;52.634;9.226;2023-05-10T12:18:05;5.18;;;4.07;;
13204;SDS011;6667;52.634;9.226;2023-05-10T12:20:31;6.72;;;4.63;;
13204;SDS011;6667;52.634;9.226;2023-05-10T12:22:58;8.23;;;4.93;;
13204;SDS011;6667;52.634;9.226;2023-05-10T12:25:30;5.95;;;4.90;;
13204;SDS011;6667;52.634;9.226;2023-05-10T12:27:59;7.63;;;5.35;;
13204;SDS011;6667;52.634;9.226;2023-05-10T12:30:29;8.02;;;6.00;;
13204;SDS011;6667;52.634;9.226;2023-05-10T12:33:00;11.23;;;7.27;;
13204;SDS011;6667;52.634;9.226;2023-05-10T12:35:29;11.18;;;7.97;;
13204;SDS011;6667;52.634;9.226;2023-05-10T12:37:57;13.70;;;8.38;;
13204;SDS011;6667;52.634;9.226;2023-05-10T12:40:23;13.57;;;9.35;;
13204;SDS011;6667;52.634;9.226;2023-05-10T12:42:52;12.10;;;7.55;;
13204;SDS011;6667;52.634;9.226;2023-05-10T12:45:18;14.02;;;8.55;;
13204;SDS011;6667;52.634;9.226;2023-05-10T12:47:45;11.88;;;8.00;;
13204;SDS011;6667;52.634;9.226;2023-05-10T12:50:12;13.48;;;8.43;;
13204;SDS011;6667;52.634;9.226;2023-05-10T12:52:39;11.27;;;7.10;;
13204;SDS011;6667;52.634;9.226;2023-05-10T12:55:06;10.98;;;7.30;;
13204;SDS011;6667;52.634;9.226;2023-05-10T12:57:33;12.32;;;7.57;;
13204;SDS011;6667;52.634;9.226;2023-05-10T13:00:01;9.05;;;7.25;;
13204;SDS011;6667;52.634;9.226;2023-05-10T13:02:29;11.00;;;6.97;;
13204;SDS011;6667;52.634;9.226;2023-05-10T13:04:56;8.52;;;5.90;;
13204;SDS011;6667;52.634;9.226;2023-05-10T13:07:23;7.93;;;4.80;;
13204;SDS011;6667;52.634;9.226;2023-05-10T13:09:50;6.65;;;4.63;;
13204;SDS011;6667;52.634;9.226;2023-05-10T13:12:16;7.75;;;4.28;;
13204;SDS011;6667;52.634;9.226;2023-05-10T13:14:43;7.88;;;4.85;;
13204;SDS011;6667;52.634;9.226;2023-05-10T13:17:11;6.82;;;3.60;;
13204;SDS011;6667;52.634;9.226;2023-05-10T13:19:38;5.63;;;3.75;;
13204;SDS011;6667;52.634;9.226;2023-05-10T13:22:05;5.32;;;3.88;;
13204;SDS011;6667;52.634;9.226;2023-05-10T13:24:31;5.80;;;3.33;;
13204;SDS011;6667;52.634;9.226;2023-05-10T13:26:58;3.95;;;3.30;;
13204;SDS011;6667;52.634;9.226;2023-05-10T13:29:25;6.97;;;3.25;;
13204;SDS011;6667;52.634;9.226;2023-05-10T13:31:52;5.28;;;3.50;;
13204;SDS011;6667;52.634;9.226;2023-05-10T13:34:20;5.47;;;3.30;;
13204;SDS011;6667;52.634;9.226;2023-05-10T13:36:47;4.40;;;3.25;;
13204;SDS011;6667;52.634;9.226;2023-05-10T13:39:14;6.00;;;2.88;;
13204;SDS011;6667;52.634;9.226;2023-05-10T13:41:41;4.55;;;1.70;;
13204;SDS011;6667;52.634;9.226;2023-05-10T13:44:07;2.70;;;1.83;;
13204;SDS011;6667;52.634;9.226;2023-05-10T13:46:34;2.53;;;1.60;;
13204;SDS011;6667;52.634;9.226;2023-05-10T13:49:01;3.08;;;2.03;;
13204;SDS011;6667;52.634;9.226;2023-05-10T13:51:29;2.90;;;1.40;;
13204;SDS011;6667;52.634;9.226;2023-05-10T13:53:57;2.85;;;1.77;;
13204;SDS011;6667;52.634;9.226;2023-05-10T13:56:24;1.45;;;1.35;;
13204;SDS011;6667;52.634;9.226;2023-05-10T13:58:50;1.60;;;1.50;;
13204;SDS011;6667;52.634;9.226;2023-05-10T14:01:17;1.38;;;1.17;;
13204;SDS011;6667;52.634;9.226;2023-05-10T14:03:44;1.38;;;1.27;;
13204;SDS011;6667;52.634;9.226;2023-05-10T14:06:11;0.98;;;0.98;;
13204;SDS011;6667;52.634;9.226;2023-05-10T14:08:39;1.75;;;1.20;;
13204;SDS011;6667;52.634;9.226;2023-05-10T14:11:06;2.17;;;1.58;;
13204;SDS011;6667;52.634;9.226;2023-05-10T14:13:33;1.48;;;1.17;;
13204;SDS011;6667;52.634;9.226;2023-05-10T14:16:00;2.28;;;1.20;;
13204;SDS011;6667;52.634;9.226;2023-05-10T14:18:27;1.50;;;1.40;;
13204;SDS011;6667;52.634;9.226;2023-05-10T14:20:53;1.20;;;1.10;;
13204;SDS011;6667;52.634;9.226;2023-05-10T14:23:21;1.13;;;1.00;;
13204;SDS011;6667;52.634;9.226;2023-05-10T14:25:51;1.48;;;1.20;;
13204;SDS011;6667;52.634;9.226;2023-05-10T14:28:18;1.80;;;1.63;;
13204;SDS011;6667;52.634;9.226;2023-05-10T14:30:45;1.55;;;1.15;;
13204;SDS011;6667;52.634;9.226;2023-05-10T14:33:12;1.20;;;1.10;;
13204;SDS011;6667;52.634;9.226;2023-05-10T14:35:39;1.52;;;1.20;;
13204;SDS011;6667;52.634;9.226;2023-05-10T14:38:06;1.38;;;1.27;;
13204;SDS011;6667;52.634;9.226;2023-05-10T14:40:33;1.90;;;1.20;;
13204;SDS011;6667;52.634;9.226;2023-05-10T14:43:01;1.30;;;1.20;;
13204;SDS011;6667;52.634;9.226;2023-05-10T14:45:28;1.50;;;1.40;;
13204;SDS011;6667;52.634;9.226;2023-05-10T14:47:55;1.83;;;1.55;;
13204;SDS011;6667;52.634;9.226;2023-05-10T14:50:21;1.58;;;1.48;;
13204;SDS011;6667;52.634;9.226;2023-05-10T14:52:48;1.73;;;1.33;;
13204;SDS011;6667;52.634;9.226;2023-05-10T14:55:15;3.10;;;1.30;;
13204;SDS011;6667;52.634;9.226;2023-05-10T14:57:42;1.80;;;1.70;;
13204;SDS011;6667;52.634;9.226;2023-05-10T15:00:14;1.33;;;1.23;;
13204;SDS011;6667;52.634;9.226;2023-05-10T15:02:41;2.33;;;1.40;;
13204;SDS011;6667;52.634;9.226;2023-05-10T15:05:08;1.20;;;1.10;;
13204;SDS011;6667;52.634;9.226;2023-05-10T15:07:35;1.55;;;1.45;;
13204;SDS011;6667;52.634;9.226;2023-05-10T15:10:03;1.70;;;1.52;;
13204;SDS011;6667;52.634;9.226;2023-05-10T15:12:32;1.58;;;1.38;;
13204;SDS011;6667;52.634;9.226;2023-05-10T15:15:00;2.38;;;1.17;;
13204;SDS011;6667;52.634;9.226;2023-05-10T15:17:29;1.30;;;1.20;;
13204;SDS011;6667;52.634;9.226;2023-05-10T15:19:57;1.20;;;1.10;;
13204;SDS011;6667;52.634;9.226;2023-05-10T15:22:25;1.25;;;1.20;;
13204;SDS011;6667;52.634;9.226;2023-05-10T15:24:53;1.20;;;1.10;;
13204;SDS011;6667;52.634;9.226;2023-05-10T15:27:20;0.98;;;0.98;;
13204;SDS011;6667;52.634;9.226;2023-05-10T15:29:47;1.98;;;1.20;;